sensor_id;sensor_type;location;lat;lon;timestamp;temperature;humidity
2523;DHT22;1272;53.332;9.860;2023-09-19T00:01:42;16.70;99.90
2523;DHT22;1272;53.332;9.860;2023-09-19T00:04:11;16.70;99.90
2523;DHT22;1272;53.332;9.860;2023-09-19T00:06:40;16.70;99.90
2523;DHT22;1272;53.332;9.860;2023-09-19T00:09:06;16.70;99.90
2523;DHT22;1272;53.332;9.860;2023-09-19T00:11:36;16.70;99.90
2523;DHT22;1272;53.332;9.860;2023-09-19T00:14:03;16.70;99.90
2523;DHT22;1272;53.332;9.860;2023-09-19T00:16:30;16.70;99.90
2523;DHT22;1272;53.332;9.860;2023-09-19T00:18:57;16.70;99.90
2523;DHT22;1272;53.332;9.860;2023-09-19T00:21:23;16.70;99.90
2523;DHT22;1272;53.332;9.860;2023-09-19T00:23:49;16.70;99.90
2523;DHT22;1272;53.332;9.860;2023-09-19T00:26:17;16.70;99.90
2523;DHT22;1272;53.332;9.860;2023-09-19T00:28:44;16.70;99.90
2523;DHT22;1272;53.332;9.860;2023-09-19T00:31:09;16.70;99.90
2523;DHT22;1272;53.332;9.860;2023-09-19T00:33:35;16.70;99.90
2523;DHT22;1272;53.332;9.860;2023-09-19T00:36:02;16.70;99.90
2523;DHT22;1272;53.332;9.860;2023-09-19T00:38:30;16.70;99.90
2523;DHT22;1272;53.332;9.860;2023-09-19T00:40:57;16.90;99.90
2523;DHT22;1272;53.332;9.860;2023-09-19T00:43:25;16.90;99.90
2523;DHT22;1272;53.332;9.860;2023-09-19T00:45:53;16.80;99.90
2523;DHT22;1272;53.332;9.860;2023-09-19T00:48:21;16.70;99.90
2523;DHT22;1272;53.332;9.860;2023-09-19T00:50:47;16.70;99.90
2523;DHT22;1272;53.332;9.860;2023-09-19T00:53:16;16.70;99.90
2523;DHT22;1272;53.332;9.860;2023-09-19T00:55:44;16.80;99.90
2523;DHT22;1272;53.332;9.860;2023-09-19T00:58:11;16.70;99.90
2523;DHT22;1272;53.332;9.860;2023-09-19T01:00:37;16.80;99.90
2523;DHT22;1272;53.332;9.860;2023-09-19T01:03:03;16.70;99.90
2523;DHT22;1272;53.332;9.860;2023-09-19T01:05:29;16.70;99.90
2523;DHT22;1272;53.332;9.860;2023-09-19T01:07:57;16.70;99.90
2523;DHT22;1272;53.332;9.860;2023-09-19T01:10:23;16.70;99.90
2523;DHT22;1272;53.332;9.860;2023-09-19T01:29:38;16.60;99.90
2523;DHT22;1272;53.332;9.860;2023-09-19T01:32:06;16.60;99.90
2523;DHT22;1272;53.332;9.860;2023-09-19T01:34:47;16.50;99.90
2523;DHT22;1272;53.332;9.860;2023-09-19T01:37:18;16.50;99.90
2523;DHT22;1272;53.332;9.860;2023-09-19T01:39:59;16.60;99.90
2523;DHT22;1272;53.332;9.860;2023-09-19T01:42:54;16.60;99.90
2523;DHT22;1272;53.332;9.860;2023-09-19T01:46:01;16.60;99.90
2523;DHT22;1272;53.332;9.860;2023-09-19T01:48:34;16.60;99.90
2523;DHT22;1272;53.332;9.860;2023-09-19T01:51:06;16.50;99.90
2523;DHT22;1272;53.332;9.860;2023-09-19T01:53:41;16.50;99.90
2523;DHT22;1272;53.332;9.860;2023-09-19T01:56:16;16.50;99.90
2523;DHT22;1272;53.332;9.860;2023-09-19T01:58:49;16.40;99.90
2523;DHT22;1272;53.332;9.860;2023-09-19T02:01:22;16.40;99.90
2523;DHT22;1272;53.332;9.860;2023-09-19T02:03:48;16.40;99.90
2523;DHT22;1272;53.332;9.860;2023-09-19T02:06:15;16.40;99.90
2523;DHT22;1272;53.332;9.860;2023-09-19T02:08:43;16.40;99.90
2523;DHT22;1272;53.332;9.860;2023-09-19T02:11:13;16.50;99.90
2523;DHT22;1272;53.332;9.860;2023-09-19T02:13:39;16.40;99.90
2523;DHT22;1272;53.332;9.860;2023-09-19T02:16:06;16.40;99.90
2523;DHT22;1272;53.332;9.860;2023-09-19T02:18:32;16.40;99.90
2523;DHT22;1272;53.332;9.860;2023-09-19T02:21:01;16.30;99.90
2523;DHT22;1272;53.332;9.860;2023-09-19T02:23:26;16.30;99.90
2523;DHT22;1272;53.332;9.860;2023-09-19T02:25:56;16.30;99.90
2523;DHT22;1272;53.332;9.860;2023-09-19T02:28:26;16.30;99.90
2523;DHT22;1272;53.332;9.860;2023-09-19T02:30:56;16.20;99.90
2523;DHT22;1272;53.332;9.860;2023-09-19T02:33:22;16.30;99.90
2523;DHT22;1272;53.332;9.860;2023-09-19T02:35:47;16.20;99.90
2523;DHT22;1272;53.332;9.860;2023-09-19T02:38:14;16.20;99.90
2523;DHT22;1272;53.332;9.860;2023-09-19T02:40:43;16.20;99.90
2523;DHT22;1272;53.332;9.860;2023-09-19T02:43:09;16.20;99.90
2523;DHT22;1272;53.332;9.860;2023-09-19T02:45:35;16.20;99.90
2523;DHT22;1272;53.332;9.860;2023-09-19T02:48:01;16.20;99.90
2523;DHT22;1272;53.332;9.860;2023-09-19T02:50:27;16.20;99.90
2523;DHT22;1272;53.332;9.860;2023-09-19T02:52:53;16.20;99.90
2523;DHT22;1272;53.332;9.860;2023-09-19T02:55:20;16.30;99.90
2523;DHT22;1272;53.332;9.860;2023-09-19T02:57:51;16.20;99.90
2523;DHT22;1272;53.332;9.860;2023-09-19T03:00:18;16.20;99.90
2523;DHT22;1272;53.332;9.860;2023-09-19T03:02:57;16.20;99.90
2523;DHT22;1272;53.332;9.860;2023-09-19T03:05:23;16.20;99.90
2523;DHT22;1272;53.332;9.860;2023-09-19T03:07:49;16.10;99.90
2523;DHT22;1272;53.332;9.860;2023-09-19T03:10:19;16.10;99.90
2523;DHT22;1272;53.332;9.860;2023-09-19T03:12:45;16.10;99.90
2523;DHT22;1272;53.332;9.860;2023-09-19T03:15:11;16.10;99.90
2523;DHT22;1272;53.332;9.860;2023-09-19T03:17:37;16.10;1.00
2523;DHT22;1272;53.332;9.860;2023-09-19T03:20:03;16.10;1.00
2523;DHT22;1272;53.332;9.860;2023-09-19T03:22:29;16.10;1.00
2523;DHT22;1272;53.332;9.860;2023-09-19T03:24:55;16.10;99.90
2523;DHT22;1272;53.332;9.860;2023-09-19T03:27:21;16.00;99.90
2523;DHT22;1272;53.332;9.860;2023-09-19T03:29:47;16.00;1.00
2523;DHT22;1272;53.332;9.860;2023-09-19T03:32:13;15.90;1.00
2523;DHT22;1272;53.332;9.860;2023-09-19T03:34:39;15.90;99.90
2523;DHT22;1272;53.332;9.860;2023-09-19T03:37:09;15.90;1.00
2523;DHT22;1272;53.332;9.860;2023-09-19T03:39:35;15.90;1.00
2523;DHT22;1272;53.332;9.860;2023-09-19T03:42:02;15.90;99.90
2523;DHT22;1272;53.332;9.860;2023-09-19T03:44:30;15.80;99.90
2523;DHT22;1272;53.332;9.860;2023-09-19T03:46:56;15.70;99.90
2523;DHT22;1272;53.332;9.860;2023-09-19T03:49:22;15.70;99.90
2523;DHT22;1272;53.332;9.860;2023-09-19T03:51:48;15.70;99.90
2523;DHT22;1272;53.332;9.860;2023-09-19T03:54:14;15.70;1.00
2523;DHT22;1272;53.332;9.860;2023-09-19T03:56:39;15.60;1.00
2523;DHT22;1272;53.332;9.860;2023-09-19T03:59:05;15.60;47.10
2523;DHT22;1272;53.332;9.860;2023-09-19T04:01:30;15.50;57.50
2523;DHT22;1272;53.332;9.860;2023-09-19T04:03:59;15.60;1.00
2523;DHT22;1272;53.332;9.860;2023-09-19T04:06:36;15.50;1.00
2523;DHT22;1272;53.332;9.860;2023-09-19T04:09:03;15.40;1.00
2523;DHT22;1272;53.332;9.860;2023-09-19T04:11:29;15.30;1.00
2523;DHT22;1272;53.332;9.860;2023-09-19T04:13:56;15.30;1.00
2523;DHT22;1272;53.332;9.860;2023-09-19T04:16:22;15.30;1.00
2523;DHT22;1272;53.332;9.860;2023-09-19T04:18:47;15.20;99.90
2523;DHT22;1272;53.332;9.860;2023-09-19T04:21:13;15.10;99.90
2523;DHT22;1272;53.332;9.860;2023-09-19T04:23:39;15.10;99.90
2523;DHT22;1272;53.332;9.860;2023-09-19T04:26:05;15.00;1.00
2523;DHT22;1272;53.332;9.860;2023-09-19T04:28:32;15.10;99.90
2523;DHT22;1272;53.332;9.860;2023-09-19T04:31:00;15.00;1.00
2523;DHT22;1272;53.332;9.860;2023-09-19T04:33:26;15.00;1.00
2523;DHT22;1272;53.332;9.860;2023-09-19T04:35:55;15.00;1.00
2523;DHT22;1272;53.332;9.860;2023-09-19T04:38:21;15.00;1.00
2523;DHT22;1272;53.332;9.860;2023-09-19T04:40:47;15.00;1.00
2523;DHT22;1272;53.332;9.860;2023-09-19T04:43:13;14.90;99.90
2523;DHT22;1272;53.332;9.860;2023-09-19T04:45:39;14.90;1.00
2523;DHT22;1272;53.332;9.860;2023-09-19T04:48:08;14.80;82.90
2523;DHT22;1272;53.332;9.860;2023-09-19T04:50:34;14.90;1.00
2523;DHT22;1272;53.332;9.860;2023-09-19T04:53:00;14.90;1.00
2523;DHT22;1272;53.332;9.860;2023-09-19T04:55:26;14.80;46.80
2523;DHT22;1272;53.332;9.860;2023-09-19T04:57:53;14.80;99.90
2523;DHT22;1272;53.332;9.860;2023-09-19T05:00:22;14.70;99.90
2523;DHT22;1272;53.332;9.860;2023-09-19T05:02:55;14.80;99.90
2523;DHT22;1272;53.332;9.860;2023-09-19T05:05:24;14.70;99.90
2523;DHT22;1272;53.332;9.860;2023-09-19T05:07:51;14.80;99.90
2523;DHT22;1272;53.332;9.860;2023-09-19T05:10:19;14.70;99.90
2523;DHT22;1272;53.332;9.860;2023-09-19T05:12:44;14.70;99.90
2523;DHT22;1272;53.332;9.860;2023-09-19T05:15:13;14.70;99.90
2523;DHT22;1272;53.332;9.860;2023-09-19T05:17:51;14.80;99.90
2523;DHT22;1272;53.332;9.860;2023-09-19T05:20:20;14.70;99.90
2523;DHT22;1272;53.332;9.860;2023-09-19T05:22:59;14.70;99.90
2523;DHT22;1272;53.332;9.860;2023-09-19T05:25:33;14.70;1.00
2523;DHT22;1272;53.332;9.860;2023-09-19T05:28:02;14.70;1.00
2523;DHT22;1272;53.332;9.860;2023-09-19T05:30:31;14.60;1.00
2523;DHT22;1272;53.332;9.860;2023-09-19T05:32:58;14.60;1.00
2523;DHT22;1272;53.332;9.860;2023-09-19T05:35:24;14.60;1.00
2523;DHT22;1272;53.332;9.860;2023-09-19T05:37:51;14.70;1.00
2523;DHT22;1272;53.332;9.860;2023-09-19T05:40:19;14.70;1.00
2523;DHT22;1272;53.332;9.860;2023-09-19T05:42:46;14.60;1.00
2523;DHT22;1272;53.332;9.860;2023-09-19T05:45:13;14.60;94.40
2523;DHT22;1272;53.332;9.860;2023-09-19T05:47:42;14.60;68.20
2523;DHT22;1272;53.332;9.860;2023-09-19T05:50:12;14.60;99.90
2523;DHT22;1272;53.332;9.860;2023-09-19T05:52:39;14.50;1.00
2523;DHT22;1272;53.332;9.860;2023-09-19T05:55:05;14.60;1.00
2523;DHT22;1272;53.332;9.860;2023-09-19T05:57:32;14.60;1.00
2523;DHT22;1272;53.332;9.860;2023-09-19T05:59:58;14.60;1.00
2523;DHT22;1272;53.332;9.860;2023-09-19T06:02:24;14.70;1.00
2523;DHT22;1272;53.332;9.860;2023-09-19T06:04:52;14.70;1.00
2523;DHT22;1272;53.332;9.860;2023-09-19T06:07:18;14.70;99.90
2523;DHT22;1272;53.332;9.860;2023-09-19T06:09:44;14.80;1.00
2523;DHT22;1272;53.332;9.860;2023-09-19T06:12:09;14.80;99.90
2523;DHT22;1272;53.332;9.860;2023-09-19T06:14:39;14.80;1.00
2523;DHT22;1272;53.332;9.860;2023-09-19T06:17:05;14.90;5.00
2523;DHT22;1272;53.332;9.860;2023-09-19T06:19:31;14.90;12.30
2523;DHT22;1272;53.332;9.860;2023-09-19T06:21:58;15.00;1.00
2523;DHT22;1272;53.332;9.860;2023-09-19T06:24:25;15.00;1.00
2523;DHT22;1272;53.332;9.860;2023-09-19T06:26:51;15.00;1.00
2523;DHT22;1272;53.332;9.860;2023-09-19T06:29:18;15.10;1.00
2523;DHT22;1272;53.332;9.860;2023-09-19T06:31:46;15.20;1.00
2523;DHT22;1272;53.332;9.860;2023-09-19T06:34:12;15.20;99.90
2523;DHT22;1272;53.332;9.860;2023-09-19T06:36:41;15.30;99.90
2523;DHT22;1272;53.332;9.860;2023-09-19T06:39:07;15.30;99.90
2523;DHT22;1272;53.332;9.860;2023-09-19T06:41:37;15.40;99.90
2523;DHT22;1272;53.332;9.860;2023-09-19T06:44:03;15.30;99.90
2523;DHT22;1272;53.332;9.860;2023-09-19T06:46:30;15.40;99.90
2523;DHT22;1272;53.332;9.860;2023-09-19T06:49:00;15.40;99.90
2523;DHT22;1272;53.332;9.860;2023-09-19T06:51:28;15.50;45.10
2523;DHT22;1272;53.332;9.860;2023-09-19T06:53:55;15.50;99.90
2523;DHT22;1272;53.332;9.860;2023-09-19T06:56:22;15.60;82.80
2523;DHT22;1272;53.332;9.860;2023-09-19T06:58:50;15.60;1.00
2523;DHT22;1272;53.332;9.860;2023-09-19T07:01:15;15.60;1.00
2523;DHT22;1272;53.332;9.860;2023-09-19T07:03:41;15.60;1.00
2523;DHT22;1272;53.332;9.860;2023-09-19T07:06:11;15.70;46.50
2523;DHT22;1272;53.332;9.860;2023-09-19T07:08:36;15.70;1.00
2523;DHT22;1272;53.332;9.860;2023-09-19T07:11:04;15.70;99.90
2523;DHT22;1272;53.332;9.860;2023-09-19T07:13:31;15.60;1.00
2523;DHT22;1272;53.332;9.860;2023-09-19T07:15:58;15.70;99.90
2523;DHT22;1272;53.332;9.860;2023-09-19T07:18:25;15.70;99.90
2523;DHT22;1272;53.332;9.860;2023-09-19T07:20:51;15.80;99.90
2523;DHT22;1272;53.332;9.860;2023-09-19T07:23:21;15.80;92.10
2523;DHT22;1272;53.332;9.860;2023-09-19T07:25:51;15.80;12.40
2523;DHT22;1272;53.332;9.860;2023-09-19T07:28:17;15.80;1.00
2523;DHT22;1272;53.332;9.860;2023-09-19T07:30:43;15.80;1.00
2523;DHT22;1272;53.332;9.860;2023-09-19T07:33:09;15.90;99.90
2523;DHT22;1272;53.332;9.860;2023-09-19T07:35:38;15.90;99.90
2523;DHT22;1272;53.332;9.860;2023-09-19T07:38:07;15.90;99.90
2523;DHT22;1272;53.332;9.860;2023-09-19T07:40:33;16.00;28.90
2523;DHT22;1272;53.332;9.860;2023-09-19T07:42:59;16.00;1.00
2523;DHT22;1272;53.332;9.860;2023-09-19T07:45:29;16.00;1.00
2523;DHT22;1272;53.332;9.860;2023-09-19T07:47:55;16.00;1.00
2523;DHT22;1272;53.332;9.860;2023-09-19T07:50:21;16.00;1.00
2523;DHT22;1272;53.332;9.860;2023-09-19T07:52:48;16.10;1.00
2523;DHT22;1272;53.332;9.860;2023-09-19T07:55:16;16.20;1.00
2523;DHT22;1272;53.332;9.860;2023-09-19T07:57:43;16.10;1.00
2523;DHT22;1272;53.332;9.860;2023-09-19T08:00:10;16.20;1.00
2523;DHT22;1272;53.332;9.860;2023-09-19T08:02:42;16.30;99.90
2523;DHT22;1272;53.332;9.860;2023-09-19T08:05:09;16.30;99.90
2523;DHT22;1272;53.332;9.860;2023-09-19T08:07:39;16.30;99.90
2523;DHT22;1272;53.332;9.860;2023-09-19T08:10:06;16.20;99.90
2523;DHT22;1272;53.332;9.860;2023-09-19T08:12:34;16.10;99.90
2523;DHT22;1272;53.332;9.860;2023-09-19T08:15:03;16.20;99.90
2523;DHT22;1272;53.332;9.860;2023-09-19T08:17:34;16.30;99.90
2523;DHT22;1272;53.332;9.860;2023-09-19T08:20:01;16.30;99.90
2523;DHT22;1272;53.332;9.860;2023-09-19T08:22:28;16.40;99.90
2523;DHT22;1272;53.332;9.860;2023-09-19T08:24:54;16.40;72.70
2523;DHT22;1272;53.332;9.860;2023-09-19T08:27:21;16.40;85.10
2523;DHT22;1272;53.332;9.860;2023-09-19T08:29:47;16.40;23.20
2523;DHT22;1272;53.332;9.860;2023-09-19T08:32:13;16.40;1.00
2523;DHT22;1272;53.332;9.860;2023-09-19T08:34:39;16.40;1.00
2523;DHT22;1272;53.332;9.860;2023-09-19T08:37:05;16.50;11.00
2523;DHT22;1272;53.332;9.860;2023-09-19T08:39:31;16.50;1.00
2523;DHT22;1272;53.332;9.860;2023-09-19T08:41:59;16.60;1.00
2523;DHT22;1272;53.332;9.860;2023-09-19T08:44:25;16.60;1.00
2523;DHT22;1272;53.332;9.860;2023-09-19T08:46:55;16.70;1.00
2523;DHT22;1272;53.332;9.860;2023-09-19T08:52:25;16.80;1.00
2523;DHT22;1272;53.332;9.860;2023-09-19T08:54:52;16.90;1.00
2523;DHT22;1272;53.332;9.860;2023-09-19T08:57:21;16.90;1.00
2523;DHT22;1272;53.332;9.860;2023-09-19T08:59:49;16.90;1.00
2523;DHT22;1272;53.332;9.860;2023-09-19T09:02:16;16.90;1.00
2523;DHT22;1272;53.332;9.860;2023-09-19T09:04:45;16.90;1.00
2523;DHT22;1272;53.332;9.860;2023-09-19T09:07:13;17.00;99.90
2523;DHT22;1272;53.332;9.860;2023-09-19T09:09:40;17.00;99.90
2523;DHT22;1272;53.332;9.860;2023-09-19T09:12:13;17.10;99.90
2523;DHT22;1272;53.332;9.860;2023-09-19T09:14:47;17.10;99.90
2523;DHT22;1272;53.332;9.860;2023-09-19T09:17:17;17.10;99.90
2523;DHT22;1272;53.332;9.860;2023-09-19T09:19:46;17.20;99.90
2523;DHT22;1272;53.332;9.860;2023-09-19T09:22:12;17.30;99.90
2523;DHT22;1272;53.332;9.860;2023-09-19T09:24:52;17.40;99.90
2523;DHT22;1272;53.332;9.860;2023-09-19T09:27:19;17.40;99.90
2523;DHT22;1272;53.332;9.860;2023-09-19T09:29:49;17.50;99.90
2523;DHT22;1272;53.332;9.860;2023-09-19T09:34:54;17.80;99.90
2523;DHT22;1272;53.332;9.860;2023-09-19T09:37:21;17.80;99.90
2523;DHT22;1272;53.332;9.860;2023-09-19T09:40:01;17.80;99.90
2523;DHT22;1272;53.332;9.860;2023-09-19T09:42:42;17.90;99.90
2523;DHT22;1272;53.332;9.860;2023-09-19T09:47:47;18.00;99.90
2523;DHT22;1272;53.332;9.860;2023-09-19T09:50:31;18.00;99.90
2523;DHT22;1272;53.332;9.860;2023-09-19T09:53:24;17.90;99.90
2523;DHT22;1272;53.332;9.860;2023-09-19T09:56:09;18.00;99.90
2523;DHT22;1272;53.332;9.860;2023-09-19T09:58:53;18.00;99.90
2523;DHT22;1272;53.332;9.860;2023-09-19T10:01:21;18.10;99.90
2523;DHT22;1272;53.332;9.860;2023-09-19T10:03:57;18.20;99.90
2523;DHT22;1272;53.332;9.860;2023-09-19T10:06:24;18.20;99.90
2523;DHT22;1272;53.332;9.860;2023-09-19T10:11:30;18.30;99.90
2523;DHT22;1272;53.332;9.860;2023-09-19T10:13:57;18.20;99.90
2523;DHT22;1272;53.332;9.860;2023-09-19T10:16:30;18.10;99.90
2523;DHT22;1272;53.332;9.860;2023-09-19T10:18:58;18.00;99.90
2523;DHT22;1272;53.332;9.860;2023-09-19T10:21:25;18.00;99.90
2523;DHT22;1272;53.332;9.860;2023-09-19T10:23:51;18.10;99.90
2523;DHT22;1272;53.332;9.860;2023-09-19T10:26:22;18.10;99.90
2523;DHT22;1272;53.332;9.860;2023-09-19T10:28:50;18.00;99.90
2523;DHT22;1272;53.332;9.860;2023-09-19T10:31:19;18.10;99.90
2523;DHT22;1272;53.332;9.860;2023-09-19T10:33:47;18.10;99.90
2523;DHT22;1272;53.332;9.860;2023-09-19T10:36:15;18.30;99.90
2523;DHT22;1272;53.332;9.860;2023-09-19T10:38:43;18.50;99.90
2523;DHT22;1272;53.332;9.860;2023-09-19T10:41:14;18.50;99.90
2523;DHT22;1272;53.332;9.860;2023-09-19T10:43:43;18.70;99.90
2523;DHT22;1272;53.332;9.860;2023-09-19T10:46:12;18.70;99.90
2523;DHT22;1272;53.332;9.860;2023-09-19T10:48:39;18.70;99.90
2523;DHT22;1272;53.332;9.860;2023-09-19T10:54:08;18.70;93.50
2523;DHT22;1272;53.332;9.860;2023-09-19T10:56:42;18.70;83.20
2523;DHT22;1272;53.332;9.860;2023-09-19T10:59:14;18.80;85.90
2523;DHT22;1272;53.332;9.860;2023-09-19T11:01:56;18.80;81.70
2523;DHT22;1272;53.332;9.860;2023-09-19T11:04:33;18.80;67.40
2523;DHT22;1272;53.332;9.860;2023-09-19T11:07:12;18.70;56.50
2523;DHT22;1272;53.332;9.860;2023-09-19T11:09:53;18.50;45.20
2523;DHT22;1272;53.332;9.860;2023-09-19T11:27:12;18.20;99.90
2523;DHT22;1272;53.332;9.860;2023-09-19T11:29:39;18.20;87.70
2523;DHT22;1272;53.332;9.860;2023-09-19T11:32:06;18.10;96.60
2523;DHT22;1272;53.332;9.860;2023-09-19T11:34:38;18.20;89.90
2523;DHT22;1272;53.332;9.860;2023-09-19T11:39:39;18.40;99.90
2523;DHT22;1272;53.332;9.860;2023-09-19T11:46:01;18.70;89.00
2523;DHT22;1272;53.332;9.860;2023-09-19T11:48:24;18.80;78.10
2523;DHT22;1272;53.332;9.860;2023-09-19T11:50:53;19.00;93.10
2523;DHT22;1272;53.332;9.860;2023-09-19T11:53:19;19.20;90.80
2523;DHT22;1272;53.332;9.860;2023-09-19T11:55:45;19.40;70.30
2523;DHT22;1272;53.332;9.860;2023-09-19T11:58:18;19.40;53.30
2523;DHT22;1272;53.332;9.860;2023-09-19T12:00:45;19.40;46.70
2523;DHT22;1272;53.332;9.860;2023-09-19T12:03:12;19.40;34.80
2523;DHT22;1272;53.332;9.860;2023-09-19T12:05:40;19.40;43.90
2523;DHT22;1272;53.332;9.860;2023-09-19T12:08:08;19.50;38.10
2523;DHT22;1272;53.332;9.860;2023-09-19T12:10:51;19.50;39.70
2523;DHT22;1272;53.332;9.860;2023-09-19T12:13:20;19.50;39.50
2523;DHT22;1272;53.332;9.860;2023-09-19T12:15:46;19.60;33.90
2523;DHT22;1272;53.332;9.860;2023-09-19T12:18:27;19.60;22.50
2523;DHT22;1272;53.332;9.860;2023-09-19T12:20:53;19.70;22.80
2523;DHT22;1272;53.332;9.860;2023-09-19T12:23:20;19.60;30.00
2523;DHT22;1272;53.332;9.860;2023-09-19T12:25:46;19.50;24.40
2523;DHT22;1272;53.332;9.860;2023-09-19T12:28:14;19.60;28.40
2523;DHT22;1272;53.332;9.860;2023-09-19T12:30:42;19.60;18.20
2523;DHT22;1272;53.332;9.860;2023-09-19T12:33:18;19.70;16.00
2523;DHT22;1272;53.332;9.860;2023-09-19T12:35:51;19.70;10.00
2523;DHT22;1272;53.332;9.860;2023-09-19T12:38:28;19.70;1.00
2523;DHT22;1272;53.332;9.860;2023-09-19T12:40:57;19.70;4.30
2523;DHT22;1272;53.332;9.860;2023-09-19T12:43:28;19.60;1.00
2523;DHT22;1272;53.332;9.860;2023-09-19T12:45:54;19.70;1.00
2523;DHT22;1272;53.332;9.860;2023-09-19T12:48:24;19.70;1.00
2523;DHT22;1272;53.332;9.860;2023-09-19T12:53:33;19.80;1.00
2523;DHT22;1272;53.332;9.860;2023-09-19T12:56:01;20.00;1.00
2523;DHT22;1272;53.332;9.860;2023-09-19T12:58:31;20.00;1.00
2523;DHT22;1272;53.332;9.860;2023-09-19T13:00:58;20.20;1.00
2523;DHT22;1272;53.332;9.860;2023-09-19T13:06:00;20.30;1.00
2523;DHT22;1272;53.332;9.860;2023-09-19T13:08:35;20.50;1.00
2523;DHT22;1272;53.332;9.860;2023-09-19T13:11:14;20.50;1.00
2523;DHT22;1272;53.332;9.860;2023-09-19T13:13:48;20.50;1.00
2523;DHT22;1272;53.332;9.860;2023-09-19T13:16:16;20.50;1.00
2523;DHT22;1272;53.332;9.860;2023-09-19T13:18:53;20.50;1.00
2523;DHT22;1272;53.332;9.860;2023-09-19T13:21:34;20.70;1.00
2523;DHT22;1272;53.332;9.860;2023-09-19T13:24:19;20.80;1.00
2523;DHT22;1272;53.332;9.860;2023-09-19T13:26:45;20.50;1.00
2523;DHT22;1272;53.332;9.860;2023-09-19T13:29:11;20.40;1.00
2523;DHT22;1272;53.332;9.860;2023-09-19T13:31:37;20.40;1.00
2523;DHT22;1272;53.332;9.860;2023-09-19T13:34:07;20.40;1.00
2523;DHT22;1272;53.332;9.860;2023-09-19T13:36:33;20.50;1.00
2523;DHT22;1272;53.332;9.860;2023-09-19T13:38:59;20.60;1.00
2523;DHT22;1272;53.332;9.860;2023-09-19T13:41:25;20.70;1.00
2523;DHT22;1272;53.332;9.860;2023-09-19T13:43:51;20.80;1.00
2523;DHT22;1272;53.332;9.860;2023-09-19T13:46:18;20.80;1.00
2523;DHT22;1272;53.332;9.860;2023-09-19T13:48:51;20.90;1.00
2523;DHT22;1272;53.332;9.860;2023-09-19T13:51:22;20.90;1.00
2523;DHT22;1272;53.332;9.860;2023-09-19T13:53:48;21.00;1.00
2523;DHT22;1272;53.332;9.860;2023-09-19T13:56:16;21.00;1.00
2523;DHT22;1272;53.332;9.860;2023-09-19T13:58:41;21.10;1.00
2523;DHT22;1272;53.332;9.860;2023-09-19T14:01:08;21.10;1.00
2523;DHT22;1272;53.332;9.860;2023-09-19T14:03:38;21.20;1.00
2523;DHT22;1272;53.332;9.860;2023-09-19T14:06:04;21.20;1.00
2523;DHT22;1272;53.332;9.860;2023-09-19T14:08:30;21.20;1.00
2523;DHT22;1272;53.332;9.860;2023-09-19T14:10:56;21.30;1.00
2523;DHT22;1272;53.332;9.860;2023-09-19T14:13:22;21.40;1.00
2523;DHT22;1272;53.332;9.860;2023-09-19T14:15:47;21.30;1.00
2523;DHT22;1272;53.332;9.860;2023-09-19T14:18:13;21.30;1.00
2523;DHT22;1272;53.332;9.860;2023-09-19T14:20:39;21.20;1.00
2523;DHT22;1272;53.332;9.860;2023-09-19T14:23:06;21.20;1.00
2523;DHT22;1272;53.332;9.860;2023-09-19T14:25:34;21.30;1.00
2523;DHT22;1272;53.332;9.860;2023-09-19T14:28:00;21.20;1.00
2523;DHT22;1272;53.332;9.860;2023-09-19T14:30:26;21.20;1.00
2523;DHT22;1272;53.332;9.860;2023-09-19T14:32:53;21.20;1.00
2523;DHT22;1272;53.332;9.860;2023-09-19T14:35:19;21.10;1.00
2523;DHT22;1272;53.332;9.860;2023-09-19T14:37:44;21.00;1.00
2523;DHT22;1272;53.332;9.860;2023-09-19T14:40:11;20.90;1.00
2523;DHT22;1272;53.332;9.860;2023-09-19T14:42:39;20.80;1.00
2523;DHT22;1272;53.332;9.860;2023-09-19T14:45:05;20.80;1.00
2523;DHT22;1272;53.332;9.860;2023-09-19T14:47:32;20.60;1.00
2523;DHT22;1272;53.332;9.860;2023-09-19T14:50:03;20.70;1.00
2523;DHT22;1272;53.332;9.860;2023-09-19T14:52:35;20.70;1.00
2523;DHT22;1272;53.332;9.860;2023-09-19T14:55:01;20.80;1.00
2523;DHT22;1272;53.332;9.860;2023-09-19T14:57:27;20.70;1.00
2523;DHT22;1272;53.332;9.860;2023-09-19T14:59:53;20.60;1.00
2523;DHT22;1272;53.332;9.860;2023-09-19T15:02:19;20.60;1.00
2523;DHT22;1272;53.332;9.860;2023-09-19T15:04:46;20.60;1.00
2523;DHT22;1272;53.332;9.860;2023-09-19T15:07:15;20.50;1.00
2523;DHT22;1272;53.332;9.860;2023-09-19T15:09:42;20.30;1.00
2523;DHT22;1272;53.332;9.860;2023-09-19T15:12:08;20.30;1.00
2523;DHT22;1272;53.332;9.860;2023-09-19T15:14:33;20.20;1.00
2523;DHT22;1272;53.332;9.860;2023-09-19T15:16:59;20.00;1.00
2523;DHT22;1272;53.332;9.860;2023-09-19T15:19:25;20.10;1.00
2523;DHT22;1272;53.332;9.860;2023-09-19T15:21:50;20.10;1.00
2523;DHT22;1272;53.332;9.860;2023-09-19T15:24:16;20.10;1.00
2523;DHT22;1272;53.332;9.860;2023-09-19T15:26:42;20.00;1.00
2523;DHT22;1272;53.332;9.860;2023-09-19T15:29:10;20.00;1.00
2523;DHT22;1272;53.332;9.860;2023-09-19T15:31:36;20.00;1.00
2523;DHT22;1272;53.332;9.860;2023-09-19T15:34:02;19.90;1.00
2523;DHT22;1272;53.332;9.860;2023-09-19T15:36:29;19.80;1.00
2523;DHT22;1272;53.332;9.860;2023-09-19T15:39:05;19.70;1.00
2523;DHT22;1272;53.332;9.860;2023-09-19T15:41:40;19.70;1.00
2523;DHT22;1272;53.332;9.860;2023-09-19T15:44:14;19.70;1.00
2523;DHT22;1272;53.332;9.860;2023-09-19T15:46:41;19.50;1.00
2523;DHT22;1272;53.332;9.860;2023-09-19T15:49:07;19.40;1.00
2523;DHT22;1272;53.332;9.860;2023-09-19T15:51:34;19.40;1.00
2523;DHT22;1272;53.332;9.860;2023-09-19T15:54:02;19.40;1.00
2523;DHT22;1272;53.332;9.860;2023-09-19T15:56:33;19.40;1.00
2523;DHT22;1272;53.332;9.860;2023-09-19T15:59:00;19.30;1.00
2523;DHT22;1272;53.332;9.860;2023-09-19T16:01:26;19.30;1.00
2523;DHT22;1272;53.332;9.860;2023-09-19T16:03:53;19.30;1.00
2523;DHT22;1272;53.332;9.860;2023-09-19T16:06:22;19.30;1.00
2523;DHT22;1272;53.332;9.860;2023-09-19T16:08:50;19.40;1.00
2523;DHT22;1272;53.332;9.860;2023-09-19T16:11:17;19.40;1.00
2523;DHT22;1272;53.332;9.860;2023-09-19T16:13:47;19.30;1.00
2523;DHT22;1272;53.332;9.860;2023-09-19T16:16:14;19.30;1.00
2523;DHT22;1272;53.332;9.860;2023-09-19T16:21:17;19.20;1.00
2523;DHT22;1272;53.332;9.860;2023-09-19T16:23:46;19.10;1.00
2523;DHT22;1272;53.332;9.860;2023-09-19T16:26:12;19.10;1.00
2523;DHT22;1272;53.332;9.860;2023-09-19T16:28:39;19.10;1.00
2523;DHT22;1272;53.332;9.860;2023-09-19T16:31:06;19.10;1.00
2523;DHT22;1272;53.332;9.860;2023-09-19T16:33:37;19.10;1.00
2523;DHT22;1272;53.332;9.860;2023-09-19T16:36:17;19.00;1.00
2523;DHT22;1272;53.332;9.860;2023-09-19T16:38:45;19.00;1.00
2523;DHT22;1272;53.332;9.860;2023-09-19T16:41:11;18.90;1.00
2523;DHT22;1272;53.332;9.860;2023-09-19T16:43:38;18.90;1.00
2523;DHT22;1272;53.332;9.860;2023-09-19T16:46:05;18.80;8.10
2523;DHT22;1272;53.332;9.860;2023-09-19T16:48:37;18.90;4.90
2523;DHT22;1272;53.332;9.860;2023-09-19T16:51:05;18.80;2.30
2523;DHT22;1272;53.332;9.860;2023-09-19T16:53:33;18.80;6.30
2523;DHT22;1272;53.332;9.860;2023-09-19T16:56:12;18.70;28.40
2523;DHT22;1272;53.332;9.860;2023-09-19T16:58:45;18.70;17.70
2523;DHT22;1272;53.332;9.860;2023-09-19T17:01:14;18.70;19.90
2523;DHT22;1272;53.332;9.860;2023-09-19T17:03:42;18.70;16.70
2523;DHT22;1272;53.332;9.860;2023-09-19T17:06:14;18.70;16.00
2523;DHT22;1272;53.332;9.860;2023-09-19T17:08:42;18.70;18.90
2523;DHT22;1272;53.332;9.860;2023-09-19T17:11:11;18.70;16.00
2523;DHT22;1272;53.332;9.860;2023-09-19T17:13:39;18.70;21.30
2523;DHT22;1272;53.332;9.860;2023-09-19T17:16:12;18.70;18.00
2523;DHT22;1272;53.332;9.860;2023-09-19T17:18:38;18.60;19.30